Time;durP1;ratioP1;P1;durP2;ratioP2;P2;SDS_P1;SDS_P2;PMS_P1;PMS_P2;Temp;Humidity;BMP_temperature;BMP_pressure;BME280_temperature;BME280_humidity;BME280_pressure;Samples;Min_cycle;Max_cycle;Signal;HPM_P1;HPM_P2
2024/03/07 00:02:13;;;;;;;3.80;1.20;;;17.80;66.00;;;;;;6254490;22;20203;-87
2024/03/07 00:04:40;;;;;;;2.88;1.42;;;17.70;66.00;;;;;;6308053;22;20555;-86
2024/03/07 00:07:07;;;;;;;2.78;1.00;;;17.80;66.10;;;;;;6280594;22;20461;-87
2024/03/07 00:09:34;;;;;;;2.80;1.30;;;17.70;66.10;;;;;;6231170;22;20148;-87
2024/03/07 00:12:00;;;;;;;5.10;1.40;;;17.70;66.10;;;;;;6256243;22;20140;-86
2024/03/07 00:14:27;;;;;;;3.08;1.30;;;17.70;66.30;;;;;;6256346;22;20186;-87
2024/03/07 00:16:55;;;;;;;2.17;1.20;;;17.70;66.30;;;;;;6282156;22;20159;-86
2024/03/07 00:19:21;;;;;;;3.75;1.30;;;17.60;66.10;;;;;;6231039;22;20148;-86
2024/03/07 00:21:47;;;;;;;1.77;1.05;;;17.60;66.30;;;;;;6281660;22;20163;-87
2024/03/07 00:24:14;;;;;;;4.03;1.50;;;17.70;66.20;;;;;;6230125;22;20136;-85
2024/03/07 00:26:40;;;;;;;6.93;1.50;;;17.70;66.30;;;;;;6281529;22;20237;-86
2024/03/07 00:29:06;;;;;;;2.05;1.30;;;17.60;66.00;;;;;;6256007;22;20145;-85
2024/03/07 00:31:36;;;;;;;2.88;1.50;;;17.60;66.10;;;;;;6255206;22;20155;-87
2024/03/07 00:34:02;;;;;;;2.20;1.38;;;17.60;66.10;;;;;;6180127;22;20513;-85
2024/03/07 00:36:28;;;;;;;2.65;1.73;;;17.70;65.80;;;;;;6256097;22;20209;-86
2024/03/07 00:38:54;;;;;;;3.13;1.58;;;17.60;66.00;;;;;;6256253;22;20207;-87
2024/03/07 00:41:20;;;;;;;2.25;1.17;;;17.60;66.10;;;;;;6255996;22;20227;-85
2024/03/07 00:43:46;;;;;;;2.03;1.20;;;17.70;65.80;;;;;;6229745;22;20147;-86
2024/03/07 00:46:13;;;;;;;2.92;1.23;;;17.60;66.00;;;;;;6230586;22;20148;-86
2024/03/07 00:48:42;;;;;;;4.30;1.40;;;17.60;66.20;;;;;;6280962;22;20148;-86
2024/03/07 00:51:08;;;;;;;3.25;1.42;;;17.60;66.20;;;;;;6204085;22;20192;-86
2024/03/07 00:53:35;;;;;;;1.75;1.00;;;17.60;65.50;;;;;;6255249;22;20254;-86
2024/03/07 00:56:02;;;;;;;2.05;1.25;;;17.70;65.80;;;;;;6255580;22;20164;-87
2024/03/07 00:58:28;;;;;;;2.13;1.38;;;17.60;65.60;;;;;;6255381;22;20183;-86
2024/03/07 01:00:54;;;;;;;2.58;1.30;;;17.60;65.90;;;;;;6281560;22;20128;-86
2024/03/07 01:03:20;;;;;;;2.38;1.27;;;17.60;65.60;;;;;;6229141;22;20179;-86
2024/03/07 01:05:46;;;;;;;5.07;1.30;;;17.60;65.80;;;;;;6230249;22;20150;-86
2024/03/07 01:08:12;;;;;;;4.15;1.40;;;17.60;65.60;;;;;;6255318;22;20140;-86
2024/03/07 01:10:42;;;;;;;2.72;1.42;;;17.50;65.80;;;;;;6254270;22;20144;-86
2024/03/07 01:13:15;;;;;;;6.18;1.50;;;17.60;65.80;;;;;;6229847;22;20156;-86
2024/03/07 01:15:43;;;;;;;3.58;1.50;;;17.60;65.70;;;;;;6258514;22;20548;-87
2024/03/07 01:18:08;;;;;;;3.33;1.17;;;17.50;65.80;;;;;;6204404;22;20159;-86
2024/03/07 01:20:35;;;;;;;4.18;1.33;;;17.60;65.80;;;;;;6255603;22;20197;-86
2024/03/07 01:23:01;;;;;;;3.58;1.52;;;17.60;65.60;;;;;;6254525;22;20526;-86
2024/03/07 01:25:26;;;;;;;2.95;1.67;;;17.60;65.70;;;;;;6254955;22;20187;-87
2024/03/07 01:27:52;;;;;;;3.35;1.80;;;17.60;65.80;;;;;;6255595;22;20475;-86
2024/03/07 01:30:19;;;;;;;3.33;1.25;;;17.60;65.90;;;;;;6280965;22;20133;-86
2024/03/07 01:32:45;;;;;;;2.22;1.40;;;17.60;65.80;;;;;;6255024;22;20166;-87
2024/03/07 01:35:13;;;;;;;2.97;1.25;;;17.50;66.00;;;;;;6254928;22;20140;-86
2024/03/07 01:37:39;;;;;;;2.65;1.17;;;17.50;65.70;;;;;;6280733;22;20188;-86
2024/03/07 01:40:06;;;;;;;2.45;1.27;;;17.50;65.60;;;;;;6230594;22;20531;-87
2024/03/07 01:42:31;;;;;;;2.10;1.35;;;17.50;65.80;;;;;;6281263;22;20666;-87
2024/03/07 01:44:58;;;;;;;1.98;1.35;;;17.50;66.00;;;;;;6229544;22;20148;-86
2024/03/07 01:47:27;;;;;;;2.33;1.60;;;17.50;65.70;;;;;;6280216;22;20198;-85
2024/03/07 01:49:53;;;;;;;2.30;1.20;;;17.50;65.90;;;;;;6254702;22;20148;-86
2024/03/07 01:52:19;;;;;;;4.00;1.45;;;17.50;65.80;;;;;;6255292;22;20156;-86
2024/03/07 01:54:46;;;;;;;3.22;1.55;;;17.50;65.70;;;;;;6254513;22;20241;-85
2024/03/07 01:57:13;;;;;;;2.88;1.30;;;17.60;65.80;;;;;;6230005;22;20510;-86
2024/03/07 01:59:39;;;;;;;2.60;1.27;;;17.50;65.90;;;;;;6279635;22;20464;-88
2024/03/07 02:02:05;;;;;;;2.00;1.30;;;17.60;65.90;;;;;;6229123;22;20152;-86
2024/03/07 02:04:34;;;;;;;3.22;1.48;;;17.50;66.00;;;;;;6254390;22;20136;-86
2024/03/07 02:07:04;;;;;;;4.22;1.60;;;17.50;65.70;;;;;;6228889;22;20159;-86
2024/03/07 02:09:30;;;;;;;5.40;1.50;;;17.50;65.90;;;;;;6228922;22;20159;-85
2024/03/07 02:11:57;;;;;;;1.73;1.27;;;17.50;65.80;;;;;;6254973;22;20132;-85
2024/03/07 02:14:23;;;;;;;3.45;1.50;;;17.50;65.90;;;;;;6203505;22;20183;-86
2024/03/07 02:16:48;;;;;;;1.92;1.33;;;17.50;66.00;;;;;;6280555;22;20183;-86
2024/03/07 02:19:15;;;;;;;4.13;1.48;;;17.50;65.40;;;;;;6255224;22;20470;-85
2024/03/07 02:21:41;;;;;;;2.47;1.30;;;17.50;65.60;;;;;;6230140;22;20151;-86
2024/03/07 02:24:08;;;;;;;3.38;1.40;;;17.50;65.60;;;;;;6254848;22;20223;-86
2024/03/07 02:26:34;;;;;;;2.03;1.27;;;17.50;65.70;;;;;;6253924;22;20249;-86
2024/03/07 02:29:00;;;;;;;3.17;1.40;;;17.50;65.60;;;;;;6254778;22;20148;-85
2024/03/07 02:31:34;;;;;;;3.75;1.33;;;17.50;65.30;;;;;;6254758;22;20152;-86
2024/03/07 02:34:02;;;;;;;2.30;1.50;;;17.40;65.70;;;;;;6232757;22;20152;-87
2024/03/07 02:36:28;;;;;;;3.10;1.35;;;17.40;65.60;;;;;;6254467;22;20595;-85
2024/03/07 02:38:54;;;;;;;2.47;1.23;;;17.50;65.70;;;;;;6254928;22;20128;-86
2024/03/07 02:41:20;;;;;;;1.83;1.23;;;17.40;65.40;;;;;;6254646;22;20155;-86
2024/03/07 02:43:46;;;;;;;2.40;1.50;;;17.50;65.50;;;;;;6307451;22;20132;-86
2024/03/07 02:46:12;;;;;;;3.85;1.63;;;17.40;65.40;;;;;;6229781;22;20226;-86
2024/03/07 02:48:39;;;;;;;1.88;1.15;;;17.40;65.40;;;;;;6254862;22;20158;-85
2024/03/07 02:51:06;;;;;;;3.17;1.30;;;17.40;65.40;;;;;;6280090;22;20233;-86
2024/03/07 02:53:32;;;;;;;2.03;1.20;;;17.40;65.90;;;;;;6228161;22;20155;-86
2024/03/07 02:55:58;;;;;;;2.10;1.40;;;17.40;65.30;;;;;;6254488;22;20229;-85
2024/03/07 02:58:24;;;;;;;2.22;1.50;;;17.40;65.10;;;;;;6254469;22;20144;-85
2024/03/07 03:00:59;;;;;;;2.58;1.52;;;17.40;65.40;;;;;;6229531;22;20159;-86
2024/03/07 03:03:26;;;;;;;1.92;1.38;;;17.40;65.10;;;;;;6229180;22;20205;-85
2024/03/07 03:05:51;;;;;;;1.25;1.08;;;17.40;65.20;;;;;;6229527;22;20156;-87
2024/03/07 03:08:17;;;;;;;3.42;1.70;;;17.50;65.30;;;;;;6280575;22;20132;-86
2024/03/07 03:10:44;;;;;;;2.55;1.48;;;17.40;65.20;;;;;;6253440;22;20225;-87
2024/03/07 03:13:10;;;;;;;4.45;1.63;;;17.50;65.10;;;;;;6280046;22;20128;-85
2024/03/07 03:15:38;;;;;;;2.97;1.50;;;17.40;65.20;;;;;;6254507;22;20155;-86
2024/03/07 03:18:05;;;;;;;2.88;1.67;;;17.40;65.20;;;;;;6228464;22;20192;-87
2024/03/07 03:20:34;;;;;;;1.85;1.35;;;17.40;65.10;;;;;;6279852;22;20227;-86
2024/03/07 03:23:02;;;;;;;2.13;1.50;;;17.40;65.20;;;;;;6254532;22;20201;-86
2024/03/07 03:25:28;;;;;;;2.78;1.25;;;17.40;65.00;;;;;;6254091;22;20623;-88
2024/03/07 03:27:54;;;;;;;1.67;1.30;;;17.40;65.00;;;;;;6228961;22;20208;-86
2024/03/07 03:30:21;;;;;;;2.53;1.50;;;17.40;65.00;;;;;;6279767;22;20147;-86
2024/03/07 03:32:47;;;;;;;1.63;1.25;;;17.40;65.10;;;;;;6254007;22;20152;-86
2024/03/07 03:35:14;;;;;;;2.75;1.60;;;17.30;65.10;;;;;;6229081;22;20533;-86
2024/03/07 03:37:41;;;;;;;1.90;1.58;;;17.40;65.10;;;;;;6228850;22;20233;-87
2024/03/07 03:40:09;;;;;;;3.40;1.67;;;17.40;65.20;;;;;;6279325;22;20124;-87
2024/03/07 03:42:38;;;;;;;2.75;1.30;;;17.40;65.20;;;;;;6254442;22;20155;-86
2024/03/07 03:45:06;;;;;;;2.83;1.52;;;17.40;65.10;;;;;;6229421;22;20177;-87
2024/03/07 03:47:36;;;;;;;4.20;1.30;;;17.30;64.90;;;;;;6229658;22;20148;-86
2024/03/07 03:50:04;;;;;;;3.65;1.50;;;17.40;65.00;;;;;;6229202;22;20652;-86
2024/03/07 03:52:31;;;;;;;2.90;1.65;;;17.30;65.00;;;;;;6280406;22;20555;-86
2024/03/07 03:54:58;;;;;;;1.90;1.50;;;17.40;65.00;;;;;;6228103;22;20483;-86
2024/03/07 03:57:25;;;;;;;1.38;1.25;;;17.40;65.00;;;;;;6254479;22;20183;-86
2024/03/07 03:59:51;;;;;;;2.53;1.48;;;17.40;64.70;;;;;;6254162;22;20174;-86
2024/03/07 04:02:17;;;;;;;3.33;1.50;;;17.40;65.00;;;;;;6253850;22;20464;-85
2024/03/07 04:04:42;;;;;;;3.97;1.58;;;17.30;64.80;;;;;;6254060;22;20156;-87
2024/03/07 04:07:09;;;;;;;2.20;1.50;;;17.30;64.70;;;;;;6254170;22;20132;-86
2024/03/07 04:09:35;;;;;;;2.20;1.23;;;17.40;64.80;;;;;;6280196;22;20167;-86
2024/03/07 04:12:00;;;;;;;2.42;1.42;;;17.30;64.70;;;;;;6228865;22;20144;-87
2024/03/07 04:14:26;;;;;;;2.22;1.70;;;17.40;64.80;;;;;;6279684;22;20183;-85
2024/03/07 04:16:56;;;;;;;2.20;1.45;;;17.40;64.90;;;;;;6228212;22;20172;-86
2024/03/07 04:19:23;;;;;;;2.22;1.35;;;17.40;64.90;;;;;;6279035;22;20144;-86
2024/03/07 04:21:49;;;;;;;3.13;1.50;;;17.30;64.90;;;;;;6279245;22;20132;-86
2024/03/07 04:24:15;;;;;;;3.85;1.85;;;17.30;65.00;;;;;;6254580;22;20514;-86
2024/03/07 04:26:41;;;;;;;3.78;1.70;;;17.30;65.00;;;;;;6228034;22;20195;-87
2024/03/07 04:29:08;;;;;;;4.10;1.60;;;17.30;65.00;;;;;;6227774;22;20132;-86
2024/03/07 04:31:34;;;;;;;1.73;1.40;;;17.30;64.80;;;;;;6253123;22;20594;-87
2024/03/07 04:34:01;;;;;;;2.00;1.30;;;17.30;64.80;;;;;;6253691;22;20185;-88
2024/03/07 04:36:27;;;;;;;1.88;1.45;;;17.30;64.70;;;;;;6229580;23;20176;-86
2024/03/07 04:38:53;;;;;;;3.15;1.40;;;17.30;64.90;;;;;;6255908;22;20211;-87
2024/03/07 04:41:18;;;;;;;3.53;1.63;;;17.30;64.70;;;;;;6230377;22;20575;-87
2024/03/07 04:43:45;;;;;;;3.80;1.58;;;17.30;64.80;;;;;;6204998;23;20143;-87
2024/03/07 04:46:12;;;;;;;4.40;1.40;;;17.30;64.60;;;;;;6227832;23;20214;-86
2024/03/07 04:48:42;;;;;;;2.10;1.30;;;17.30;64.60;;;;;;6227995;22;20156;-86
2024/03/07 04:51:08;;;;;;;3.67;1.60;;;17.30;65.60;;;;;;6178831;22;20187;-86
2024/03/07 04:53:41;;;;;;;2.00;1.50;;;17.30;64.70;;;;;;6228918;22;20148;-86
2024/03/07 04:56:09;;;;;;;3.40;1.33;;;17.30;64.60;;;;;;6158181;22;20160;-86
2024/03/07 04:58:37;;;;;;;2.47;1.63;;;17.30;64.70;;;;;;6202968;23;20155;-87
2024/03/07 05:01:05;;;;;;;1.48;1.20;;;17.30;64.50;;;;;;6153780;23;20193;-86
2024/03/07 05:03:31;;;;;;;2.45;1.50;;;17.30;64.50;;;;;;6153474;23;20206;-86
2024/03/07 05:06:00;;;;;;;4.05;1.60;;;17.30;64.60;;;;;;6204787;22;20234;-86
2024/03/07 05:08:26;;;;;;;1.42;1.33;;;17.30;64.60;;;;;;6151785;23;20136;-87
2024/03/07 05:10:52;;;;;;;2.80;1.83;;;17.30;64.60;;;;;;6229738;22;20159;-87
2024/03/07 05:13:18;;;;;;;2.03;1.48;;;17.30;64.50;;;;;;6254870;22;20467;-88
2024/03/07 05:15:44;;;;;;;2.10;1.33;;;17.30;64.50;;;;;;6254863;22;20152;-86
2024/03/07 05:18:12;;;;;;;2.97;1.38;;;17.30;64.40;;;;;;6255553;22;20197;-86
2024/03/07 05:20:38;;;;;;;2.45;1.42;;;17.30;64.40;;;;;;6229873;22;20457;-86
2024/03/07 05:23:05;;;;;;;1.65;1.40;;;17.30;64.30;;;;;;6255306;22;20602;-87
2024/03/07 05:25:31;;;;;;;2.65;1.48;;;17.30;64.30;;;;;;6253356;22;20193;-85
2024/03/07 05:27:56;;;;;;;2.25;1.50;;;17.30;64.60;;;;;;6229421;22;20159;-86
2024/03/07 05:30:25;;;;;;;2.17;1.25;;;17.30;64.40;;;;;;6204745;23;20159;-86
2024/03/07 05:32:51;;;;;;;3.15;1.50;;;17.30;64.50;;;;;;6229333;22;20147;-86
2024/03/07 05:35:17;;;;;;;2.63;1.35;;;17.30;64.40;;;;;;6254684;22;20140;-86
2024/03/07 05:37:46;;;;;;;2.38;1.50;;;17.30;64.20;;;;;;6254808;22;20164;-88
2024/03/07 05:40:12;;;;;;;2.47;1.77;;;17.30;64.40;;;;;;6205658;22;20164;-86
2024/03/07 05:42:38;;;;;;;3.75;1.45;;;17.30;64.60;;;;;;6229175;23;20216;-86
2024/03/07 05:45:07;;;;;;;1.90;1.40;;;17.20;64.50;;;;;;6204318;23;20163;-85
2024/03/07 05:47:34;;;;;;;2.20;1.50;;;17.30;64.30;;;;;;6204910;22;20163;-86
2024/03/07 05:49:59;;;;;;;2.35;1.40;;;17.30;64.20;;;;;;6204087;23;20164;-86
2024/03/07 05:52:25;;;;;;;2.50;1.60;;;17.20;64.50;;;;;;6229503;22;20155;-86
2024/03/07 05:54:51;;;;;;;3.95;1.38;;;17.30;64.30;;;;;;6203499;23;20155;-86
2024/03/07 05:57:17;;;;;;;2.20;1.55;;;17.20;64.30;;;;;;6229355;22;20241;-86
2024/03/07 05:59:42;;;;;;;3.63;1.60;;;17.30;64.20;;;;;;6204405;23;20155;-86
2024/03/07 06:02:08;;;;;;;2.17;1.48;;;17.30;64.20;;;;;;6228818;22;20156;-86
2024/03/07 06:04:34;;;;;;;2.55;1.50;;;17.30;64.20;;;;;;6229770;22;20250;-86
2024/03/07 06:07:00;;;;;;;2.25;1.40;;;17.20;64.20;;;;;;6204321;23;20160;-87
2024/03/07 06:09:26;;;;;;;2.97;1.60;;;17.30;64.10;;;;;;6151659;23;20150;-87
2024/03/07 06:11:53;;;;;;;1.70;1.27;;;17.30;64.20;;;;;;6204321;22;20160;-87
2024/03/07 06:14:19;;;;;;;2.30;1.40;;;17.20;64.10;;;;;;6203984;22;20216;-87
2024/03/07 06:16:45;;;;;;;3.38;1.42;;;17.20;64.20;;;;;;6228343;22;20254;-86
2024/03/07 06:19:11;;;;;;;2.30;1.40;;;17.30;64.20;;;;;;6254290;22;20625;-86
2024/03/07 06:21:40;;;;;;;3.03;1.60;;;17.30;64.00;;;;;;6203577;23;20155;-86
2024/03/07 06:24:08;;;;;;;3.40;1.80;;;17.20;64.10;;;;;;6204416;22;20193;-86
2024/03/07 06:26:49;;;;;;;3.75;1.63;;;17.30;64.10;;;;;;6255213;22;20192;-86
2024/03/07 06:29:16;;;;;;;2.70;1.50;;;17.20;64.20;;;;;;6235248;22;20213;-87
2024/03/07 06:31:42;;;;;;;3.67;1.55;;;17.20;64.00;;;;;;6229040;22;20184;-86
2024/03/07 06:34:08;;;;;;;3.13;1.67;;;17.20;63.80;;;;;;6255032;22;20132;-87
2024/03/07 06:36:34;;;;;;;1.90;1.23;;;17.20;64.20;;;;;;6255059;22;20167;-87
2024/03/07 06:39:00;;;;;;;2.63;1.58;;;17.20;64.30;;;;;;6228255;22;20148;-87
2024/03/07 06:41:26;;;;;;;3.28;1.60;;;17.20;64.20;;;;;;6229184;22;20155;-87
2024/03/07 06:43:55;;;;;;;1.80;1.40;;;17.20;64.10;;;;;;6254865;22;20136;-86
2024/03/07 06:46:21;;;;;;;3.10;1.60;;;17.20;64.10;;;;;;6253405;22;20167;-85
2024/03/07 06:48:47;;;;;;;1.95;1.33;;;17.30;64.00;;;;;;6252051;22;20178;-87
2024/03/07 06:51:13;;;;;;;2.83;1.67;;;17.20;64.00;;;;;;6278286;22;20136;-87
2024/03/07 06:53:40;;;;;;;1.20;1.10;;;17.20;64.10;;;;;;6253173;22;20164;-86
2024/03/07 06:56:06;;;;;;;2.45;1.60;;;17.30;63.70;;;;;;6228550;22;20156;-86
2024/03/07 06:58:32;;;;;;;1.63;1.33;;;17.30;63.50;;;;;;6254136;22;20152;-87
2024/03/07 07:01:00;;;;;;;2.63;1.70;;;17.30;64.00;;;;;;6253800;22;20227;-87
2024/03/07 07:03:28;;;;;;;3.35;1.55;;;17.20;64.10;;;;;;6255089;22;20125;-87
2024/03/07 07:05:54;;;;;;;2.03;1.42;;;17.30;63.10;;;;;;6306804;22;20151;-87
2024/03/07 07:08:21;;;;;;;2.17;1.40;;;17.40;62.50;;;;;;6253902;22;20205;-87
2024/03/07 07:10:47;;;;;;;2.35;1.50;;;17.40;62.40;;;;;;6254934;22;20124;-87
2024/03/07 07:13:13;;;;;;;2.03;1.30;;;17.50;62.20;;;;;;6229011;22;20159;-87
2024/03/07 07:15:39;;;;;;;1.98;1.50;;;17.60;61.80;;;;;;6306378;22;20132;-87
2024/03/07 07:18:07;;;;;;;1.83;1.50;;;17.60;61.90;;;;;;6229134;22;20180;-87
2024/03/07 07:20:34;;;;;;;3.28;1.90;;;17.60;62.20;;;;;;6279653;22;20486;-87
2024/03/07 07:23:02;;;;;;;2.30;1.40;;;17.60;61.60;;;;;;6229256;22;20155;-87
2024/03/07 07:25:27;;;;;;;1.73;1.38;;;17.70;61.80;;;;;;6254561;22;20239;-88
2024/03/07 07:27:53;;;;;;;2.45;1.60;;;17.60;61.60;;;;;;6228185;22;20482;-87
2024/03/07 07:30:22;;;;;;;1.90;1.58;;;17.60;61.20;;;;;;6307918;22;20136;-88
2024/03/07 07:33:07;;;;;;;5.30;1.65;;;17.70;60.90;;;;;;6239720;22;20152;-88
2024/03/07 07:35:34;;;;;;;3.53;1.60;;;17.70;60.50;;;;;;6261965;22;20154;-89
2024/03/07 07:38:07;;;;;;;2.65;1.42;;;17.60;62.00;;;;;;6233735;22;20175;-86
2024/03/07 07:40:33;;;;;;;1.90;1.30;;;17.70;61.20;;;;;;6256425;22;20143;-86
2024/03/07 07:43:01;;;;;;;3.42;1.48;;;17.60;61.60;;;;;;6231045;22;20159;-86
2024/03/07 07:45:26;;;;;;;5.20;1.58;;;17.60;61.90;;;;;;6231209;22;20244;-86
2024/03/07 07:47:55;;;;;;;2.63;1.60;;;17.50;61.70;;;;;;6255752;22;20563;-86
2024/03/07 07:50:22;;;;;;;3.40;1.40;;;17.50;62.00;;;;;;6231363;22;20148;-87
2024/03/07 07:52:50;;;;;;;7.95;1.58;;;17.40;62.10;;;;;;6254037;22;20154;-87
2024/03/07 07:55:17;;;;;;;7.97;1.50;;;17.50;62.20;;;;;;6230638;22;20144;-87
2024/03/07 07:57:46;;;;;;;2.53;1.40;;;17.50;61.90;;;;;;6230663;22;20179;-87
2024/03/07 08:00:21;;;;;;;2.17;1.30;;;17.50;61.60;;;;;;6230739;22;20151;-87
2024/03/07 08:03:02;;;;;;;3.65;1.40;;;17.50;61.50;;;;;;6282172;22;20428;-86
2024/03/07 08:05:29;;;;;;;2.45;1.60;;;17.50;62.00;;;;;;6255772;22;20136;-87
2024/03/07 08:07:57;;;;;;;3.78;1.45;;;17.50;61.40;;;;;;6255767;22;20132;-87
2024/03/07 08:10:25;;;;;;;5.22;1.60;;;17.60;61.60;;;;;;6255227;22;20590;-87
2024/03/07 08:12:51;;;;;;;5.05;1.70;;;17.50;62.30;;;;;;6257036;22;20145;-86
2024/03/07 08:15:17;;;;;;;4.57;1.80;;;17.50;62.20;;;;;;6281612;22;20132;-86
2024/03/07 08:17:44;;;;;;;3.42;1.42;;;17.50;62.50;;;;;;6256193;22;20199;-86
2024/03/07 08:20:17;;;;;;;2.42;1.48;;;17.60;61.70;;;;;;6231888;22;20151;-87
2024/03/07 08:22:43;;;;;;;3.15;1.25;;;17.50;61.50;;;;;;6215108;23;20257;-87
2024/03/07 08:25:22;;;;;;;;;;;;;;;;;;;;;
2024/03/07 08:27:49;;;;;;;1.63;1.38;;;17.60;61.50;;;;;;6163189;23;20665;-86
2024/03/07 08:30:18;;;;;;;3.33;1.50;;;17.80;60.70;;;;;;6166453;23;20260;-87
2024/03/07 08:33:33;;;;;;;3.97;1.42;;;17.80;60.30;;;;;;6193247;23;20562;-86
2024/03/07 08:35:37;;;;;;;5.03;1.73;;;17.80;60.70;;;;;;6130710;23;20159;-87
2024/03/07 08:38:04;;;;;;;1.70;1.20;;;17.80;60.70;;;;;;6132397;23;20261;-87
2024/03/07 08:40:38;;;;;;;2.67;1.13;;;17.80;60.30;;;;;;6156789;23;20626;-86
2024/03/07 08:43:10;;;;;;;1.88;1.27;;;17.70;60.50;;;;;;6181027;23;20155;-86
2024/03/07 08:45:49;;;;;;;2.83;1.60;;;17.70;60.60;;;;;;6157281;23;20511;-86
2024/03/07 08:48:29;;;;;;;2.33;1.38;;;17.80;60.30;;;;;;6180609;23;20166;-86
2024/03/07 08:50:55;;;;;;;2.33;1.30;;;17.80;60.40;;;;;;6155823;23;20154;-85
2024/03/07 08:53:31;;;;;;;4.05;1.27;;;17.70;61.20;;;;;;6215641;22;20153;-86
2024/03/07 08:56:02;;;;;;;1.60;1.30;;;17.70;60.70;;;;;;6199585;23;20240;-86
2024/03/07 08:58:42;;;;;;;2.03;1.58;;;17.80;60.40;;;;;;6061247;23;20161;-86
2024/03/07 09:01:16;;;;;;;1.50;1.20;;;17.90;60.50;;;;;;6161112;23;20179;-86
2024/03/07 09:04:17;;;;;;;3.92;1.40;;;17.90;60.40;;;;;;6161998;23;20159;-86
2024/03/07 09:06:48;;;;;;;1.60;1.15;;;17.80;60.70;;;;;;6154495;23;20158;-87
2024/03/07 09:09:14;;;;;;;1.45;1.30;;;17.80;60.80;;;;;;6160607;23;20162;-86
2024/03/07 09:11:43;;;;;;;3.15;1.52;;;17.80;61.00;;;;;;6165629;23;20185;-86
2024/03/07 09:14:09;;;;;;;2.47;1.48;;;17.80;60.80;;;;;;6220156;23;20240;-87
2024/03/07 09:16:43;;;;;;;1.92;1.20;;;17.80;60.60;;;;;;6220681;23;20188;-86
2024/03/07 09:19:13;;;;;;;2.83;1.50;;;17.80;60.80;;;;;;6155565;23;20154;-85
2024/03/07 09:21:46;;;;;;;3.20;1.42;;;18.00;59.80;;;;;;6154833;23;20160;-86
2024/03/07 09:24:15;;;;;;;5.45;1.33;;;17.90;60.10;;;;;;6155277;23;20172;-87
2024/03/07 09:26:47;;;;;;;2.05;1.38;;;17.80;60.70;;;;;;6105453;23;20282;-86
2024/03/07 09:29:19;;;;;;;3.50;1.23;;;17.90;60.10;;;;;;6137051;23;20649;-87
2024/03/07 09:31:46;;;;;;;1.92;1.45;;;17.90;60.30;;;;;;6112285;23;20802;-87
2024/03/07 09:34:14;;;;;;;3.58;1.30;;;17.90;60.50;;;;;;6135902;23;20167;-86
2024/03/07 09:36:41;;;;;;;3.05;1.10;;;18.00;59.60;;;;;;6134988;23;20279;-87
2024/03/07 09:39:08;;;;;;;1.98;1.50;;;18.00;59.50;;;;;;6135546;23;20216;-87
2024/03/07 09:41:35;;;;;;;4.90;1.48;;;18.10;59.90;;;;;;6136222;23;20154;-87
2024/03/07 09:44:03;;;;;;;4.25;1.33;;;18.00;59.80;;;;;;6155889;23;20185;-87
2024/03/07 09:46:28;;;;;;;2.53;1.30;;;18.10;59.60;;;;;;6166321;23;20489;-86
2024/03/07 09:48:55;;;;;;;1.33;1.23;;;18.10;59.60;;;;;;6165380;23;20666;-88
2024/03/07 09:51:21;;;;;;;2.60;1.50;;;18.10;59.70;;;;;;6256261;22;20210;-85
2024/03/07 09:53:48;;;;;;;1.52;1.05;;;18.00;60.90;;;;;;6282040;22;20515;-85
2024/03/07 09:56:15;;;;;;;2.25;1.25;;;18.00;59.70;;;;;;6284163;22;20125;-85
2024/03/07 09:58:45;;;;;;;2.40;1.20;;;18.00;60.00;;;;;;6259010;22;20148;-85
2024/03/07 10:01:13;;;;;;;1.88;1.30;;;17.90;59.80;;;;;;6233151;22;20614;-85
2024/03/07 10:03:39;;;;;;;2.63;1.40;;;18.00;59.90;;;;;;6231629;22;20148;-85
2024/03/07 10:06:07;;;;;;;1.63;1.40;;;18.10;59.10;;;;;;6257319;22;20238;-85
2024/03/07 10:08:36;;;;;;;2.33;1.15;;;18.10;59.20;;;;;;6258361;22;20124;-86
2024/03/07 10:11:04;;;;;;;4.43;1.40;;;18.10;59.40;;;;;;6257609;22;20128;-86
2024/03/07 10:13:32;;;;;;;1.95;1.20;;;18.00;59.70;;;;;;6256597;22;20152;-86
2024/03/07 10:15:59;;;;;;;2.90;1.40;;;18.00;60.00;;;;;;6257043;22;20139;-85
2024/03/07 10:18:27;;;;;;;1.90;1.17;;;18.00;59.80;;;;;;6235597;22;20148;-85
2024/03/07 10:20:55;;;;;;;1.52;1.33;;;18.00;60.10;;;;;;6287816;22;20128;-86
2024/03/07 10:23:23;;;;;;;1.52;1.13;;;18.00;59.60;;;;;;6264838;22;20128;-87
2024/03/07 10:25:57;;;;;;;2.67;1.50;;;18.00;60.00;;;;;;6203032;22;20274;-86
2024/03/07 10:28:27;;;;;;;4.60;1.20;;;18.00;59.30;;;;;;6227684;22;20156;-86
2024/03/07 10:30:55;;;;;;;1.77;0.90;;;18.10;59.20;;;;;;6225319;22;20614;-85
2024/03/07 10:33:21;;;;;;;1.83;1.23;;;18.10;59.50;;;;;;6250786;22;20133;-86
2024/03/07 10:35:49;;;;;;;2.65;1.20;;;18.10;59.90;;;;;;6250814;22;20570;-85
2024/03/07 10:38:18;;;;;;;2.53;1.15;;;18.00;59.50;;;;;;6253273;22;20536;-86
2024/03/07 10:40:58;;;;;;;2.75;1.00;;;18.10;59.70;;;;;;6230058;22;20144;-85
2024/03/07 10:43:26;;;;;;;3.40;1.20;;;18.10;59.50;;;;;;6227638;22;20156;-86
2024/03/07 10:45:51;;;;;;;2.25;1.30;;;18.10;59.30;;;;;;6251258;22;20129;-85
2024/03/07 10:48:19;;;;;;;2.35;1.10;;;18.10;59.20;;;;;;6250343;22;20230;-85
2024/03/07 10:50:55;;;;;;;1.75;1.20;;;18.10;59.20;;;;;;6275290;22;20556;-86
2024/03/07 10:53:57;;;;;;;3.47;1.30;;;18.10;59.20;;;;;;6224714;22;20156;-85
2024/03/07 10:56:48;;;;;;;3.05;1.40;;;18.10;58.90;;;;;;6277278;22;20214;-85
2024/03/07 10:59:18;;;;;;;2.13;1.45;;;18.10;59.30;;;;;;6225616;22;20219;-85
2024/03/07 11:01:54;;;;;;;3.85;1.33;;;18.10;59.00;;;;;;6225041;22;20156;-85
2024/03/07 11:04:22;;;;;;;1.73;1.38;;;18.10;58.80;;;;;;6225643;22;20159;-85
2024/03/07 11:06:49;;;;;;;1.88;1.30;;;18.10;58.70;;;;;;6249761;22;20270;-86
2024/03/07 11:09:22;;;;;;;3.80;1.25;;;18.10;59.20;;;;;;6251435;22;20133;-85
2024/03/07 11:11:48;;;;;;;1.50;1.05;;;18.10;59.50;;;;;;6227399;22;20152;-85
2024/03/07 11:14:16;;;;;;;1.88;1.30;;;18.10;59.50;;;;;;6226553;22;20599;-86
2024/03/07 11:16:42;;;;;;;1.95;1.25;;;18.10;58.50;;;;;;6225154;22;20207;-86
2024/03/07 11:19:27;;;;;;;2.03;1.27;;;18.10;59.00;;;;;;6252890;22;20133;-84
2024/03/07 11:21:55;;;;;;;2.85;1.30;;;18.20;58.50;;;;;;6283478;22;20207;-85
2024/03/07 11:24:32;;;;;;;3.15;1.20;;;18.20;58.60;;;;;;6231695;22;20151;-85
2024/03/07 11:27:05;;;;;;;3.17;1.40;;;18.20;58.60;;;;;;6261501;22;20218;-84
2024/03/07 11:29:47;;;;;;;2.92;1.23;;;18.20;58.50;;;;;;6261710;22;20460;-85
2024/03/07 11:32:14;;;;;;;2.63;1.20;;;18.20;58.60;;;;;;6284538;22;20211;-86
2024/03/07 11:34:42;;;;;;;2.67;1.40;;;18.30;58.70;;;;;;6282184;22;20132;-86
2024/03/07 11:37:17;;;;;;;1.20;1.10;;;18.20;58.60;;;;;;6232017;22;20793;-84
2024/03/07 11:39:47;;;;;;;2.88;1.27;;;18.20;58.70;;;;;;6232440;22;20193;-84
2024/03/07 11:42:25;;;;;;;4.00;1.17;;;18.20;58.50;;;;;;6255358;22;20154;-85
2024/03/07 11:44:51;;;;;;;2.42;1.33;;;18.20;58.30;;;;;;6308079;22;20124;-85
2024/03/07 11:47:18;;;;;;;2.75;1.00;;;18.30;58.30;;;;;;6255458;22;20576;-85
2024/03/07 11:49:48;;;;;;;2.42;1.30;;;18.20;58.70;;;;;;6281562;22;20144;-85
2024/03/07 11:52:16;;;;;;;2.75;1.13;;;18.20;59.00;;;;;;6230180;22;20144;-84
2024/03/07 11:54:51;;;;;;;1.40;1.10;;;18.20;59.00;;;;;;6227854;22;20149;-84
2024/03/07 11:57:26;;;;;;;2.35;1.10;;;18.20;58.70;;;;;;6281644;22;20213;-85
2024/03/07 11:59:52;;;;;;;1.90;1.30;;;18.20;58.20;;;;;;6231411;22;20486;-85
2024/03/07 12:02:21;;;;;;;1.60;1.10;;;18.20;57.80;;;;;;6254690;22;20132;-85
2024/03/07 12:04:49;;;;;;;2.22;1.20;;;18.20;58.70;;;;;;6255959;22;20155;-86
2024/03/07 12:07:17;;;;;;;1.63;1.33;;;18.20;58.30;;;;;;6259306;22;20136;-85
2024/03/07 12:09:50;;;;;;;2.50;1.10;;;18.20;58.20;;;;;;6265624;22;20690;-86
2024/03/07 12:12:18;;;;;;;1.42;1.00;;;18.30;58.20;;;;;;6238541;22;20151;-86
2024/03/07 12:14:44;;;;;;;1.73;1.10;;;18.30;57.80;;;;;;6258318;22;20147;-86
2024/03/07 12:17:09;;;;;;;1.20;1.10;;;18.30;58.30;;;;;;6282697;22;20179;-82
2024/03/07 12:19:35;;;;;;;1.73;1.05;;;18.30;57.60;;;;;;6256873;22;20144;-85
2024/03/07 12:22:02;;;;;;;1.75;1.20;;;18.30;58.00;;;;;;6229153;22;20625;-85
2024/03/07 12:24:28;;;;;;;6.30;1.33;;;18.30;58.10;;;;;;6229545;22;20251;-85
2024/03/07 12:27:11;;;;;;;5.13;1.42;;;18.30;57.50;;;;;;6233116;22;20287;-89
2024/03/07 12:29:53;;;;;;;6.40;1.40;;;18.40;57.70;;;;;;6264556;22;20140;-85
2024/03/07 12:32:18;;;;;;;3.17;1.25;;;18.40;57.70;;;;;;6234570;22;20152;-86
2024/03/07 12:34:46;;;;;;;5.72;1.67;;;18.40;57.70;;;;;;6252488;22;20161;-86
2024/03/07 12:37:16;;;;;;;5.85;1.50;;;18.40;56.90;;;;;;6252452;22;20693;-87
2024/03/07 12:42:33;;;;;;;4.70;1.77;;;18.50;58.00;;;;;;6161719;23;20676;-85
2024/03/07 12:44:59;;;;;;;9.07;1.40;;;18.40;57.80;;;;;;6159462;23;20155;-86
2024/03/07 12:47:31;;;;;;;5.55;1.30;;;18.50;57.70;;;;;;6160551;23;20174;-85
2024/03/07 12:49:58;;;;;;;8.32;1.50;;;18.60;56.90;;;;;;6137556;23;20165;-85
2024/03/07 12:52:25;;;;;;;3.78;1.30;;;18.60;57.00;;;;;;6164699;23;20158;-85
2024/03/07 12:54:51;;;;;;;6.88;1.52;;;18.60;57.50;;;;;;6161044;23;20170;-86
2024/03/07 12:57:19;;;;;;;6.40;1.30;;;18.50;57.10;;;;;;6164134;23;20233;-85